Time;durP1;ratioP1;P1;durP2;ratioP2;P2;SDS_P1;SDS_P2;PMS_P1;PMS_P2;Temp;Humidity;BMP_temperature;BMP_pressure;BME280_temperature;BME280_humidity;BME280_pressure;Samples;Min_cycle;Max_cycle;Signal;HPM_P1;HPM_P2
2022/04/07 00:02:36;;;;;;;1.50;1.23;;;;;;;13.46;51.97;96368.81;8350282;28;20262;-68
2022/04/07 00:06:39;;;;;;;2.07;1.20;;;;;;;13.47;52.05;96360.03;8351183;28;20232;-69
2022/04/07 00:10:42;;;;;;;2.03;1.20;;;;;;;13.49;51.97;96354.72;8351088;28;20384;-69
2022/04/07 00:14:46;;;;;;;1.97;1.10;;;;;;;13.51;51.96;96352.00;8350623;28;20235;-68
2022/04/07 00:18:49;;;;;;;1.80;1.20;;;;;;;13.44;52.24;96351.66;8350803;28;20224;-68
2022/04/07 00:22:52;;;;;;;1.97;1.03;;;;;;;13.43;52.36;96339.63;8350760;28;20228;-69
2022/04/07 00:26:55;;;;;;;1.20;1.00;;;;;;;13.50;52.39;96340.78;8350728;28;20227;-68
2022/04/07 00:31:00;;;;;;;1.50;0.97;;;;;;;13.51;52.59;96341.59;8350185;28;20255;-68
2022/04/07 00:35:05;;;;;;;1.80;1.00;;;;;;;13.52;52.45;96331.06;8349686;28;20574;-68
2022/04/07 00:39:08;;;;;;;1.00;0.93;;;;;;;13.42;53.22;96333.59;8349642;28;20236;-68
2022/04/07 00:43:28;;;;;;;1.20;0.90;;;;;;;13.46;53.18;96319.41;8349081;28;20585;-69
2022/04/07 00:47:33;;;;;;;1.53;1.00;;;;;;;13.53;53.22;96330.09;8349274;28;20234;-68
2022/04/07 00:51:39;;;;;;;1.30;1.10;;;;;;;13.54;53.37;96320.56;8348971;28;20248;-68
2022/04/07 00:55:42;;;;;;;1.37;1.07;;;;;;;13.47;53.99;96321.03;8349103;28;20238;-68
2022/04/07 00:59:45;;;;;;;1.10;1.00;;;;;;;13.40;54.77;96312.09;8349048;28;20561;-68
2022/04/07 01:03:50;;;;;;;1.40;1.00;;;;;;;13.38;54.94;96316.56;8349218;28;20573;-68
2022/04/07 01:07:53;;;;;;;1.40;1.00;;;;;;;13.30;56.66;96327.59;8348779;28;20239;-69
2022/04/07 01:11:56;;;;;;;3.23;1.00;;;;;;;13.19;58.10;96334.59;8348970;28;20232;-68
2022/04/07 01:16:00;;;;;;;1.43;1.10;;;;;;;13.06;59.44;96329.56;8348486;28;20262;-68
2022/04/07 01:20:06;;;;;;;1.33;1.20;;;;;;;12.94;60.23;96320.16;8348402;28;20236;-68
2022/04/07 01:24:10;;;;;;;1.40;1.07;;;;;;;13.11;59.26;96312.66;8348166;28;20239;-68
2022/04/07 01:28:14;;;;;;;1.40;1.10;;;;;;;12.98;58.64;96311.97;8348197;28;20232;-68
2022/04/07 01:32:20;;;;;;;2.20;1.20;;;;;;;12.97;59.37;96307.75;8348022;28;20236;-68
2022/04/07 01:36:24;;;;;;;2.27;1.40;;;;;;;12.87;59.91;96312.88;8347912;28;20247;-68
2022/04/07 01:40:30;;;;;;;1.43;1.33;;;;;;;12.73;60.62;96300.13;8348101;28;20543;-68
2022/04/07 01:44:37;;;;;;;1.23;1.13;;;;;;;12.83;60.59;96305.41;8349500;28;20240;-68
2022/04/07 01:48:40;;;;;;;1.70;1.27;;;;;;;12.78;60.65;96298.00;8349952;28;20219;-69
2022/04/07 01:52:45;;;;;;;1.90;1.17;;;;;;;12.84;60.38;96302.69;8349675;28;20228;-69
2022/04/07 01:56:48;;;;;;;1.63;1.20;;;;;;;12.64;61.14;96304.31;8349548;28;20248;-68
2022/04/07 02:00:54;;;;;;;1.87;1.10;;;;;;;12.72;60.68;96293.31;8349510;28;20208;-68
2022/04/07 02:04:59;;;;;;;1.47;1.10;;;;;;;12.71;60.48;96284.66;8349500;28;20240;-68
2022/04/07 02:09:02;;;;;;;2.33;1.17;;;;;;;12.76;60.35;96276.53;8347647;28;20242;-68
2022/04/07 02:13:06;;;;;;;1.37;1.07;;;;;;;12.81;59.94;96265.75;8347460;28;20240;-68
2022/04/07 02:17:10;;;;;;;1.33;1.13;;;;;;;12.82;59.76;96263.03;8346146;28;20239;-69
2022/04/07 02:21:13;;;;;;;1.47;1.20;;;;;;;12.77;59.62;96251.38;8346992;28;20247;-68
2022/04/07 02:25:16;;;;;;;0.90;0.90;;;;;;;12.69;59.63;96244.19;8346821;28;20236;-68
2022/04/07 02:29:19;;;;;;;1.33;1.10;;;;;;;12.68;59.70;96245.16;8346949;28;20538;-68
2022/04/07 02:33:23;;;;;;;1.80;1.13;;;;;;;12.76;59.28;96239.34;8346998;28;20228;-68
2022/04/07 02:37:26;;;;;;;2.57;1.30;;;;;;;12.70;59.15;96236.28;8346912;28;20255;-69
2022/04/07 02:41:28;;;;;;;1.63;1.20;;;;;;;12.72;58.88;96238.75;8346926;28;20519;-68
2022/04/07 02:45:31;;;;;;;1.70;1.30;;;;;;;12.55;59.50;96231.50;8346893;28;20429;-69
2022/04/07 02:49:35;;;;;;;4.17;1.40;;;;;;;12.69;58.84;96241.59;8346276;28;20239;-68
2022/04/07 02:53:38;;;;;;;2.83;1.30;;;;;;;12.58;59.15;96246.81;8346388;28;20232;-68
2022/04/07 02:57:41;;;;;;;1.60;1.20;;;;;;;12.62;58.72;96245.63;8346529;28;20534;-68
2022/04/07 03:01:45;;;;;;;2.10;1.40;;;;;;;12.60;58.42;96234.53;8346243;28;20232;-68
2022/04/07 03:05:50;;;;;;;2.50;1.40;;;;;;;12.59;57.86;96232.91;8346292;28;20235;-68
2022/04/07 03:09:53;;;;;;;2.43;1.20;;;;;;;12.49;58.01;96228.44;8346132;28;20232;-69
2022/04/07 03:13:56;;;;;;;1.50;1.40;;;;;;;12.47;57.91;96230.34;8346250;28;20243;-69
2022/04/07 03:17:59;;;;;;;4.10;1.30;;;;;;;12.50;57.19;96224.06;8346362;28;20551;-68
2022/04/07 03:22:03;;;;;;;2.47;2.03;;;;;;;12.52;56.66;96222.16;8346148;28;20245;-68
2022/04/07 03:26:06;;;;;;;2.03;1.83;;;;;;;12.52;56.66;96216.97;8345942;28;20231;-68
2022/04/07 03:30:10;;;;;;;1.40;1.30;;;;;;;12.59;56.01;96215.53;8347759;28;20239;-69
2022/04/07 03:34:13;;;;;;;1.70;1.40;;;;;;;12.44;56.40;96209.81;8351734;28;20228;-68
2022/04/07 03:38:18;;;;;;;1.20;1.10;;;;;;;12.32;56.50;96203.81;8351586;28;20239;-69
2022/04/07 03:42:20;;;;;;;1.13;1.03;;;;;;;12.19;57.05;96199.72;8351536;28;20239;-68
2022/04/07 03:46:24;;;;;;;2.10;1.30;;;;;;;12.19;56.15;96197.94;8351707;28;20235;-68
2022/04/07 03:50:27;;;;;;;2.30;1.20;;;;;;;12.18;56.07;96187.69;8351273;28;20235;-68
2022/04/07 03:54:32;;;;;;;1.50;1.10;;;;;;;12.28;55.57;96206.75;8351159;28;20232;-68
2022/04/07 03:58:35;;;;;;;1.30;1.10;;;;;;;12.18;55.61;96203.25;8351306;28;20228;-68
2022/04/07 04:02:38;;;;;;;1.33;1.10;;;;;;;12.22;55.55;96197.72;8350546;28;20232;-68
2022/04/07 04:06:42;;;;;;;1.40;1.00;;;;;;;12.30;55.32;96195.34;8350747;28;20240;-69
2022/04/07 04:10:46;;;;;;;1.63;1.23;;;;;;;12.29;55.24;96196.28;8350566;28;20228;-68
2022/04/07 04:14:49;;;;;;;0.90;0.73;;;;;;;12.29;55.39;96191.06;8347734;28;20238;-68
2022/04/07 04:18:52;;;;;;;2.13;1.20;;;;;;;12.24;55.29;96185.44;8350350;28;20227;-69
2022/04/07 04:22:55;;;;;;;1.40;1.00;;;;;;;12.15;55.07;96188.75;8350578;28;20231;-68
2022/04/07 04:27:00;;;;;;;0.87;0.70;;;;;;;12.28;55.15;96189.44;8350161;28;20243;-68
2022/04/07 04:31:03;;;;;;;1.57;0.70;;;;;;;12.30;55.04;96192.75;8350006;28;20231;-68
2022/04/07 04:35:08;;;;;;;2.43;0.60;;;;;;;12.04;55.80;96170.63;8349640;28;20350;-68
2022/04/07 04:39:11;;;;;;;0.53;0.50;;;;;;;12.12;55.64;96173.44;8349525;28;20228;-68
2022/04/07 04:43:15;;;;;;;0.87;0.70;;;;;;;12.25;55.54;96179.28;8349166;28;20234;-70
2022/04/07 04:47:18;;;;;;;0.90;0.70;;;;;;;12.28;55.48;96173.88;8349399;28;20560;-69
2022/04/07 04:51:21;;;;;;;0.70;0.50;;;;;;;12.15;56.20;96159.38;8349234;28;20236;-68
2022/04/07 04:55:25;;;;;;;0.90;0.60;;;;;;;12.24;56.17;96171.63;8349480;28;20235;-70
2022/04/07 04:59:31;;;;;;;1.70;0.60;;;;;;;12.16;56.58;96174.00;8349353;28;20227;-68
2022/04/07 05:03:35;;;;;;;1.03;0.67;;;;;;;12.16;56.98;96154.06;8348832;28;20224;-68
2022/04/07 05:07:38;;;;;;;0.63;0.63;;;;;;;12.27;56.68;96148.84;8348876;28;20429;-68
2022/04/07 05:11:41;;;;;;;1.00;0.70;;;;;;;12.22;56.99;96142.38;8348221;28;20232;-68
2022/04/07 05:15:45;;;;;;;4.73;1.10;;;;;;;12.04;57.46;96127.34;8345444;28;20232;-70
2022/04/07 05:19:48;;;;;;;0.73;0.60;;;;;;;12.26;57.12;96125.59;8347624;28;20427;-68
2022/04/07 05:23:51;;;;;;;2.77;0.70;;;;;;;12.23;57.35;96121.50;8347471;28;20420;-69
2022/04/07 05:27:54;;;;;;;1.67;0.90;;;;;;;12.22;57.76;96127.66;8347390;28;20232;-68
2022/04/07 05:31:58;;;;;;;0.93;0.73;;;;;;;11.94;59.17;96126.44;8347640;28;20549;-68
2022/04/07 05:36:06;;;;;;;2.93;0.83;;;;;;;12.32;58.20;96141.53;8348085;28;20236;-68
2022/04/07 05:40:11;;;;;;;1.07;0.70;;;;;;;12.26;58.33;96139.44;8347467;28;20423;-68
2022/04/07 05:44:14;;;;;;;2.43;0.80;;;;;;;12.23;58.33;96138.84;8347742;28;20232;-69
2022/04/07 05:48:19;;;;;;;0.80;0.60;;;;;;;12.41;57.87;96134.75;8347929;28;20558;-68
2022/04/07 05:52:22;;;;;;;0.70;0.60;;;;;;;12.27;58.18;96128.09;8347056;28;20248;-68
2022/04/07 05:56:25;;;;;;;1.60;0.90;;;;;;;12.39;57.65;96123.66;8347521;28;20243;-69
2022/04/07 06:00:27;;;;;;;1.13;0.70;;;;;;;12.26;57.95;96136.84;8347366;28;20232;-68
2022/04/07 06:04:32;;;;;;;1.17;0.90;;;;;;;12.07;59.09;96124.50;8347391;28;20228;-68
2022/04/07 06:08:35;;;;;;;1.00;0.70;;;;;;;12.38;57.96;96116.03;8347028;28;20235;-68
2022/04/07 06:12:42;;;;;;;1.50;0.80;;;;;;;12.44;57.72;96115.53;8347166;28;20236;-68
2022/04/07 06:16:45;;;;;;;0.80;0.80;;;;;;;12.51;57.25;96111.50;8346927;28;20240;-68
2022/04/07 06:20:49;;;;;;;1.40;0.70;;;;;;;12.89;56.16;96105.72;8347052;28;20238;-68
2022/04/07 06:24:52;;;;;;;1.60;0.80;;;;;;;12.93;55.92;96100.25;8347140;28;20239;-68
2022/04/07 06:28:55;;;;;;;2.03;0.50;;;;;;;13.05;55.18;96100.06;8346975;28;20420;-68
2022/04/07 06:32:58;;;;;;;1.47;0.60;;;;;;;12.94;55.23;96083.72;8347088;28;20236;-68
2022/04/07 06:37:02;;;;;;;0.97;0.50;;;;;;;12.94;54.79;96075.94;8346794;28;20254;-68
2022/04/07 06:41:06;;;;;;;1.87;0.90;;;;;;;12.91;54.69;96067.44;8346738;28;20242;-68
2022/04/07 06:45:09;;;;;;;0.87;0.70;;;;;;;13.10;54.28;96073.72;8346134;28;20399;-69
2022/04/07 06:49:12;;;;;;;1.33;0.83;;;;;;;12.85;53.81;96070.56;8346501;28;20416;-68
2022/04/07 06:53:17;;;;;;;2.47;1.30;;;;;;;13.09;53.37;96048.66;8346362;28;20240;-68
2022/04/07 06:57:20;;;;;;;1.00;0.80;;;;;;;13.26;52.24;96048.03;8346388;28;20240;-68
2022/04/07 07:01:23;;;;;;;1.33;0.70;;;;;;;13.27;52.08;96039.31;8346513;28;20236;-68
2022/04/07 07:05:27;;;;;;;2.73;0.60;;;;;;;13.24;51.92;96039.56;8351009;28;20239;-69
2022/04/07 07:09:32;;;;;;;2.20;0.50;;;;;;;13.24;51.78;96031.75;8352720;28;20298;-68
2022/04/07 07:13:36;;;;;;;1.00;0.70;;;;;;;13.24;51.85;96013.56;8352548;28;20419;-68
2022/04/07 07:17:39;;;;;;;3.90;0.77;;;;;;;13.07;52.23;96009.00;8352694;28;20239;-72
2022/04/07 07:21:42;;;;;;;0.93;0.40;;;;;;;13.13;51.57;95998.06;8352228;28;20254;-69
2022/04/07 07:25:47;;;;;;;0.73;0.47;;;;;;;13.34;51.02;95989.41;8352369;28;20549;-68
2022/04/07 07:29:50;;;;;;;1.10;0.70;;;;;;;13.28;51.18;95988.13;8352032;28;20492;-68
2022/04/07 07:33:53;;;;;;;1.10;0.80;;;;;;;13.35;50.87;95986.69;8351863;28;20227;-69
2022/04/07 07:37:58;;;;;;;0.70;0.50;;;;;;;13.34;50.63;95982.41;8351517;28;20427;-68
2022/04/07 07:42:03;;;;;;;3.53;0.60;;;;;;;13.31;50.47;95974.91;8351601;28;20239;-68
2022/04/07 07:46:05;;;;;;;0.90;0.43;;;;;;;13.58;49.76;95971.66;8351231;28;20244;-70
2022/04/07 07:50:09;;;;;;;0.60;0.50;;;;;;;14.04;48.67;95959.75;8354008;28;20228;-69
2022/04/07 07:54:12;;;;;;;0.67;0.40;;;;;;;14.12;47.90;95955.63;8350822;28;20238;-69
2022/04/07 07:58:17;;;;;;;1.43;0.50;;;;;;;13.92;48.29;95960.00;8351069;28;20247;-69
2022/04/07 08:02:20;;;;;;;1.37;0.70;;;;;;;13.72;48.67;95949.63;8351061;28;20565;-69
2022/04/07 08:06:23;;;;;;;2.03;0.53;;;;;;;13.59;48.97;95938.66;8350889;28;20243;-70
2022/04/07 08:10:26;;;;;;;0.50;0.40;;;;;;;13.74;48.58;95937.28;8350803;28;20243;-70
2022/04/07 08:14:31;;;;;;;1.27;0.60;;;;;;;13.55;49.54;95939.91;8350162;28;20303;-67
2022/04/07 08:18:35;;;;;;;2.03;0.77;;;;;;;13.42;51.61;95927.16;8350444;28;20235;-66
2022/04/07 08:22:38;;;;;;;1.10;0.60;;;;;;;14.33;49.49;95934.63;8350800;28;20443;-67
2022/04/07 08:26:41;;;;;;;1.30;0.50;;;;;;;13.43;49.25;95921.00;8350482;28;20287;-66
2022/04/07 08:30:45;;;;;;;1.63;0.50;;;;;;;13.61;48.51;95916.78;8350350;28;20239;-71
2022/04/07 08:34:48;;;;;;;1.17;0.50;;;;;;;13.58;49.08;95913.63;8350280;28;20235;-70
2022/04/07 08:38:51;;;;;;;1.03;0.40;;;;;;;13.44;50.42;95914.84;8350203;28;20236;-60
2022/04/07 08:42:54;;;;;;;2.23;0.90;;;;;;;13.46;51.98;95913.75;8349954;28;20231;-60
2022/04/07 08:46:59;;;;;;;4.00;0.67;;;;;;;13.39;52.34;95907.47;8349866;28;20302;-60
2022/04/07 08:51:03;;;;;;;0.83;0.80;;;;;;;13.41;52.23;95908.13;8349651;28;20239;-60
2022/04/07 08:55:09;;;;;;;1.73;0.70;;;;;;;13.54;51.90;95910.47;8349354;28;20244;-62
2022/04/07 08:59:12;;;;;;;0.57;0.50;;;;;;;13.76;50.93;95891.16;8349409;28;20236;-60
2022/04/07 09:03:17;;;;;;;1.33;0.40;;;;;;;13.49;50.94;95884.06;8348834;28;20236;-60
2022/04/07 09:07:22;;;;;;;4.83;0.60;;;;;;;13.91;51.01;95859.53;8348721;28;20577;-59
2022/04/07 09:11:25;;;;;;;1.13;0.50;;;;;;;14.11;49.87;95857.69;8348724;28;20240;-60
2022/04/07 09:15:29;;;;;;;0.67;0.50;;;;;;;13.84;49.58;95859.25;8348607;28;27934;-59
2022/04/07 09:19:36;;;;;;;1.60;0.50;;;;;;;14.04;49.03;95852.22;8348292;28;20232;-60
2022/04/07 09:23:43;;;;;;;3.20;1.30;;;;;;;13.67;49.39;95840.00;8348462;28;20236;-59
2022/04/07 09:27:49;;;;;;;1.93;0.60;;;;;;;13.59;50.29;95843.25;8348236;28;20430;-60
2022/04/07 09:31:54;;;;;;;0.40;0.40;;;;;;;13.65;49.26;95828.88;8348180;28;20232;-60
2022/04/07 09:36:05;;;;;;;0.47;0.47;;;;;;;13.69;48.99;95812.88;8348020;28;20228;-60
2022/04/07 09:40:10;;;;;;;0.70;0.50;;;;;;;13.84;48.72;95809.81;8347980;28;20240;-59
2022/04/07 09:44:22;;;;;;;0.57;0.30;;;;;;;13.87;48.47;95794.75;8339954;28;20231;-59
2022/04/07 09:48:27;;;;;;;1.00;0.40;;;;;;;13.97;48.10;95779.09;8347717;28;20236;-60
2022/04/07 09:52:34;;;;;;;2.80;0.67;;;;;;;13.94;47.42;95812.41;8347492;28;20252;-60
2022/04/07 09:56:38;;;;;;;0.50;0.40;;;;;;;14.14;47.70;95768.91;8347617;28;20238;-59
2022/04/07 10:00:42;;;;;;;6.37;0.57;;;;;;;13.99;47.08;95756.38;8347580;28;20232;-59
2022/04/07 10:04:45;;;;;;;0.53;0.37;;;;;;;14.02;47.08;95743.06;8347441;28;20236;-60
2022/04/07 10:08:51;;;;;;;2.30;0.40;;;;;;;14.00;46.80;95723.38;8347338;28;20251;-60
2022/04/07 10:12:54;;;;;;;0.50;0.50;;;;;;;14.06;47.11;95717.56;8347438;28;20227;-60
2022/04/07 10:16:57;;;;;;;1.70;0.40;;;;;;;13.87;49.36;95729.69;8347187;28;20299;-60
2022/04/07 10:21:02;;;;;;;4.20;0.50;;;;;;;13.87;52.18;95753.13;8347221;28;20238;-60
2022/04/07 10:25:07;;;;;;;1.63;0.53;;;;;;;13.63;54.71;95745.81;8346784;28;20236;-60
2022/04/07 10:29:20;;;;;;;0.80;0.50;;;;;;;13.65;53.25;95727.44;8346724;28;20573;-59
2022/04/07 10:33:33;;;;;;;1.47;0.40;;;;;;;14.07;52.41;95703.63;8346810;28;20235;-60
2022/04/07 10:37:47;;;;;;;1.40;0.43;;;;;;;14.25;51.52;95686.22;8346833;28;20259;-60
2022/04/07 10:41:56;;;;;;;1.37;0.60;;;;;;;14.51;50.73;95680.31;8353642;28;20251;-60
2022/04/07 10:46:18;;;;;;;1.17;0.50;;;;;;;14.55;49.88;95675.63;8353310;28;20236;-60
2022/04/07 10:50:22;;;;;;;1.03;0.73;;;;;;;14.74;50.38;95662.50;8351769;28;20227;-59
2022/04/07 10:54:28;;;;;;;0.93;0.60;;;;;;;14.83;49.35;95655.53;8352744;28;20468;-61
2022/04/07 10:58:46;;;;;;;2.30;0.50;;;;;;;14.51;50.17;95651.69;8352787;28;20228;-59
2022/04/07 11:03:13;;;;;;;0.90;0.50;;;;;;;14.88;50.15;95650.72;8352888;28;20431;-59
2022/04/07 11:07:17;;;;;;;1.53;0.43;;;;;;;14.84;49.68;95641.56;8351894;28;20240;-60
2022/04/07 11:11:51;;;;;;;1.57;0.60;;;;;;;14.21;50.76;95645.84;8352481;28;20232;-60
2022/04/07 11:15:59;;;;;;;1.13;0.47;;;;;;;14.55;50.84;95633.97;8352514;28;20291;-61
2022/04/07 11:20:06;;;;;;;1.70;0.50;;;;;;;14.66;50.00;95610.34;8352296;28;20562;-60
2022/04/07 11:24:10;;;;;;;1.13;0.50;;;;;;;14.35;50.02;95613.25;8351563;28;20415;-60
2022/04/07 11:28:14;;;;;;;3.50;0.60;;;;;;;14.03;50.85;95619.81;8352160;28;20252;-60
2022/04/07 11:32:19;;;;;;;1.27;1.00;;;;;;;14.31;50.85;95611.13;8351398;28;20331;-60
2022/04/07 11:36:39;;;;;;;4.60;0.60;;;;;;;14.51;50.79;95594.38;8351172;28;20236;-59
2022/04/07 11:41:00;;;;;;;2.03;0.70;;;;;;;14.75;50.39;95585.94;8348260;28;20538;-60
2022/04/07 11:45:03;;;;;;;1.83;0.57;;;;;;;15.02;50.08;95565.94;8348218;28;20242;-60
2022/04/07 11:49:07;;;;;;;1.53;0.70;;;;;;;15.09;49.55;95559.13;8350351;28;20311;-59
2022/04/07 11:53:11;;;;;;;2.60;0.63;;;;;;;15.18;48.86;95547.78;8349287;28;20233;-60
2022/04/07 11:57:14;;;;;;;0.87;0.80;;;;;;;15.38;48.67;95553.59;8350066;28;20224;-60
2022/04/07 12:01:17;;;;;;;2.80;0.50;;;;;;;15.16;48.97;95547.13;8349057;28;20220;-60
2022/04/07 12:05:21;;;;;;;1.00;0.47;;;;;;;15.12;48.40;95530.16;8350041;28;20239;-60
2022/04/07 12:09:24;;;;;;;0.80;0.40;;;;;;;15.04;49.14;95530.09;8348057;28;20240;-60
2022/04/07 12:13:27;;;;;;;2.60;0.70;;;;;;;15.25;48.60;95527.94;8350589;28;20565;-60
2022/04/07 12:17:34;;;;;;;3.03;0.67;;;;;;;15.46;47.99;95513.69;8350629;28;20239;-60
2022/04/07 12:21:56;;;;;;;1.03;0.53;;;;;;;15.43;48.25;95522.63;8350221;28;20593;-59
2022/04/07 12:26:01;;;;;;;1.23;0.50;;;;;;;15.13;48.65;95510.13;8350207;28;20231;-60
2022/04/07 12:30:06;;;;;;;2.90;0.60;;;;;;;15.21;48.43;95481.47;8349474;28;20242;-59
2022/04/07 12:34:11;;;;;;;0.73;0.50;;;;;;;14.86;48.99;95486.69;8349068;28;20274;-62
2022/04/07 12:38:16;;;;;;;4.63;0.40;;;;;;;14.98;49.86;95484.66;8349805;28;20236;-60
2022/04/07 12:42:21;;;;;;;0.60;0.37;;;;;;;15.05;49.26;95482.22;8349772;28;20242;-59
2022/04/07 12:46:23;;;;;;;1.23;0.40;;;;;;;14.94;49.10;95451.22;8349503;28;20227;-60
2022/04/07 12:50:27;;;;;;;2.77;0.53;;;;;;;15.79;47.11;95446.75;8349386;28;20525;-59
2022/04/07 12:54:32;;;;;;;1.73;0.23;;;;;;;15.93;46.66;95442.69;8349135;28;20428;-60
2022/04/07 12:58:35;;;;;;;2.87;0.33;;;;;;;16.90;44.71;95441.94;8349188;28;20236;-61
2022/04/07 13:02:45;;;;;;;0.20;0.20;;;;;;;16.13;45.79;95442.38;8348993;28;20255;-59
2022/04/07 13:06:49;;;;;;;0.83;0.20;;;;;;;16.15;46.02;95436.00;8349100;28;20282;-59
2022/04/07 13:10:55;;;;;;;1.00;0.30;;;;;;;16.17;45.92;95441.06;8348750;28;20232;-61
2022/04/07 13:15:00;;;;;;;3.77;0.50;;;;;;;15.76;46.48;95412.34;8348886;28;20243;-60
2022/04/07 13:19:04;;;;;;;2.30;0.30;;;;;;;15.83;45.73;95403.69;8348966;28;20240;-59
2022/04/07 13:34:27;;;;;;;2.50;1.00;;;;;;;16.44;45.59;95382.41;8348214;28;20416;-59
2022/04/07 13:38:32;;;;;;;5.93;3.47;;;;;;;16.07;45.91;95368.16;8315371;28;20404;-60
2022/04/07 13:42:35;;;;;;;4.30;0.50;;;;;;;15.99;45.67;95350.69;8315241;28;20547;-59
2022/04/07 13:46:38;;;;;;;0.53;0.20;;;;;;;16.68;44.47;95360.63;8315304;28;20228;-59
2022/04/07 13:50:43;;;;;;;0.30;0.30;;;;;;;16.05;45.01;95351.00;8334663;28;20235;-59
2022/04/07 13:54:46;;;;;;;2.27;0.20;;;;;;;16.09;45.72;95342.69;8347026;28;20259;-59
2022/04/07 13:58:49;;;;;;;1.60;0.20;;;;;;;16.11;45.12;95356.38;8343639;28;20234;-60
2022/04/07 14:02:52;;;;;;;3.17;0.50;;;;;;;16.47;44.92;95310.75;8345617;28;20220;-59
2022/04/07 14:07:00;;;;;;;1.73;0.30;;;;;;;16.29;44.85;95319.63;8345090;28;20295;-63
2022/04/07 14:11:03;;;;;;;3.47;0.60;;;;;;;16.41;44.64;95315.69;8345003;28;20229;-59
2022/04/07 14:15:08;;;;;;;2.30;0.23;;;;;;;16.37;45.17;95314.38;8346017;28;20228;-59
2022/04/07 14:19:12;;;;;;;2.23;0.40;;;;;;;16.14;45.02;95310.84;8343729;28;20433;-60
2022/04/07 14:23:17;;;;;;;2.30;0.30;;;;;;;16.63;44.98;95328.16;8346339;28;20283;-60
2022/04/07 14:27:20;;;;;;;2.13;0.30;;;;;;;16.42;45.18;95306.03;8346046;28;20232;-59
2022/04/07 14:31:24;;;;;;;2.63;0.33;;;;;;;16.37;45.43;95324.00;8345979;28;20239;-60
2022/04/07 14:35:27;;;;;;;0.30;0.30;;;;;;;16.49;45.41;95319.25;8345730;28;20550;-60
2022/04/07 14:39:32;;;;;;;0.87;0.27;;;;;;;16.59;45.46;95318.03;8346528;28;20239;-60
2022/04/07 14:43:35;;;;;;;1.60;0.30;;;;;;;16.49;45.78;95307.00;8346797;28;20228;-60
2022/04/07 14:47:38;;;;;;;0.77;0.20;;;;;;;16.12;46.67;95304.97;8346401;28;20232;-60
2022/04/07 14:51:41;;;;;;;2.83;0.30;;;;;;;16.28;46.66;95291.88;8346235;28;20239;-60
2022/04/07 14:55:46;;;;;;;1.83;0.20;;;;;;;16.39;46.48;95304.59;8346525;28;20230;-60
2022/04/07 14:59:54;;;;;;;3.57;0.30;;;;;;;16.12;47.00;95311.00;8346618;28;20299;-60
2022/04/07 15:03:57;;;;;;;1.37;0.30;;;;;;;16.03;47.36;95330.31;8346150;28;20576;-60
2022/04/07 15:08:01;;;;;;;0.10;0.10;;;;;;;15.78;47.38;95291.19;8346319;28;20248;-60
2022/04/07 15:12:07;;;;;;;4.63;0.40;;;;;;;15.57;47.97;95316.94;8346094;28;20440;-60
2022/04/07 15:16:12;;;;;;;2.87;0.30;;;;;;;15.79;48.45;95315.50;8345921;28;20234;-60
2022/04/07 15:20:15;;;;;;;0.97;0.43;;;;;;;15.41;49.29;95346.44;8346066;28;20549;-60
2022/04/07 15:24:18;;;;;;;1.17;0.30;;;;;;;15.40;51.65;95347.41;8346942;28;20236;-60
2022/04/07 15:28:23;;;;;;;2.10;0.50;;;;;;;15.25;54.12;95334.22;8351979;28;20257;-60
2022/04/07 15:32:26;;;;;;;1.70;0.50;;;;;;;14.79;54.72;95352.84;8351839;28;20240;-60
2022/04/07 15:36:29;;;;;;;1.33;0.77;;;;;;;14.99;54.25;95347.34;8351645;28;20553;-60
2022/04/07 15:40:32;;;;;;;2.10;0.67;;;;;;;15.01;54.53;95356.63;8351423;28;20297;-59
2022/04/07 15:44:37;;;;;;;0.63;0.50;;;;;;;14.85;54.14;95351.38;8351616;28;20548;-60
2022/04/07 15:48:40;;;;;;;1.20;0.30;;;;;;;14.61;55.47;95349.50;8351490;28;20228;-59
2022/04/07 15:52:43;;;;;;;2.23;0.33;;;;;;;14.44;56.36;95369.41;8351233;28;20295;-59
2022/04/07 15:56:51;;;;;;;0.90;0.60;;;;;;;14.52;57.33;95398.09;8350879;28;20303;-59
2022/04/07 16:00:55;;;;;;;2.17;0.80;;;;;;;14.24;59.65;95394.84;8350988;28;20240;-60
2022/04/07 16:04:59;;;;;;;2.77;0.50;;;;;;;14.14;60.69;95397.53;8351058;28;20306;-59
2022/04/07 16:09:02;;;;;;;2.87;0.60;;;;;;;14.28;61.59;95424.81;8350877;28;20244;-71
2022/04/07 16:13:05;;;;;;;5.13;0.57;;;;;;;14.16;61.81;95411.22;8350885;28;20412;-70
2022/04/07 16:17:09;;;;;;;1.73;0.50;;;;;;;14.12;62.50;95404.69;8350824;28;20236;-71
2022/04/07 16:21:13;;;;;;;1.00;0.60;;;;;;;14.22;62.50;95397.63;8350013;28;20432;-71
2022/04/07 16:25:16;;;;;;;1.57;0.70;;;;;;;14.02;62.51;95393.56;8350487;28;20236;-72
2022/04/07 16:29:21;;;;;;;3.27;0.67;;;;;;;13.81;63.38;95399.09;8350350;28;20258;-71
2022/04/07 16:33:27;;;;;;;1.97;0.70;;;;;;;13.91;63.64;95396.41;8349995;28;20232;-72
2022/04/07 16:37:31;;;;;;;2.57;0.90;;;;;;;13.94;63.50;95406.53;8349775;28;20526;-72
2022/04/07 16:41:34;;;;;;;2.40;1.03;;;;;;;13.70;64.85;95394.94;8350763;28;20236;-76
2022/04/07 16:45:37;;;;;;;1.90;0.70;;;;;;;13.73;64.17;95399.84;8349796;28;20255;-72
2022/04/07 16:49:41;;;;;;;2.23;1.37;;;;;;;13.73;64.16;95412.84;8349712;28;20232;-72
2022/04/07 16:53:44;;;;;;;2.67;1.80;;;;;;;13.87;63.99;95424.50;8349480;28;20243;-71
2022/04/07 16:57:47;;;;;;;1.40;0.60;;;;;;;13.72;64.18;95407.81;8349334;28;20542;-72
2022/04/07 17:01:50;;;;;;;1.47;0.90;;;;;;;13.54;64.56;95402.63;8349060;28;20235;-71
2022/04/07 17:05:56;;;;;;;1.13;0.90;;;;;;;13.92;63.70;95388.47;8348845;28;20235;-71
2022/04/07 17:09:58;;;;;;;1.43;0.90;;;;;;;13.66;63.70;95381.41;8348794;28;20240;-71
2022/04/07 17:14:01;;;;;;;2.93;1.30;;;;;;;13.38;63.82;95372.06;8346722;28;20339;-70
2022/04/07 17:18:06;;;;;;;1.70;1.00;;;;;;;13.23;62.98;95406.34;8348797;28;20238;-70
2022/04/07 17:22:10;;;;;;;2.13;0.90;;;;;;;13.10;61.27;95405.91;8348263;28;20240;-71
2022/04/07 17:26:14;;;;;;;4.83;0.60;;;;;;;13.23;61.87;95432.34;8347348;28;20216;-70
2022/04/07 17:30:18;;;;;;;1.83;0.90;;;;;;;13.20;61.51;95443.03;8348193;28;20239;-71
2022/04/07 17:34:21;;;;;;;2.73;0.90;;;;;;;13.45;60.63;95436.31;8347547;28;20239;-69
2022/04/07 17:38:26;;;;;;;2.43;1.00;;;;;;;13.35;60.21;95439.97;8348288;28;20242;-70
2022/04/07 17:42:29;;;;;;;4.80;1.13;;;;;;;13.40;59.85;95446.38;8347953;28;20307;-70
2022/04/07 17:46:32;;;;;;;17.77;3.87;;;;;;;14.36;67.22;95457.91;8348245;28;20228;-66
2022/04/07 17:50:35;;;;;;;3.40;1.40;;;;;;;14.09;61.67;95475.28;8346814;28;20236;-66
2022/04/07 17:54:40;;;;;;;2.93;1.10;;;;;;;14.53;58.78;95445.81;8351369;28;20235;-66
2022/04/07 17:58:43;;;;;;;4.63;1.00;;;;;;;14.75;57.61;95460.09;8347688;28;20227;-68
2022/04/07 18:02:47;;;;;;;3.10;0.70;;;;;;;14.39;54.21;95452.38;8347589;28;20331;-68
2022/04/07 18:06:51;;;;;;;3.40;0.90;;;;;;;13.93;56.28;95475.13;8346773;28;20240;-68
2022/04/07 18:10:55;;;;;;;1.40;0.70;;;;;;;13.79;56.58;95498.09;8347321;28;20413;-68
2022/04/07 18:14:58;;;;;;;2.77;1.00;;;;;;;13.84;56.59;95518.44;8345322;28;20244;-70
2022/04/07 18:19:02;;;;;;;4.93;2.50;;;;;;;13.84;56.65;95537.50;8344173;28;20238;-69
2022/04/07 18:23:09;;;;;;;3.37;1.40;;;;;;;13.82;57.26;95534.22;8347979;28;20236;-70
2022/04/07 18:27:20;;;;;;;5.23;1.27;;;;;;;13.73;58.05;95524.69;8346342;28;20236;-69
2022/04/07 18:31:23;;;;;;;5.00;1.20;;;;;;;13.60;59.09;95569.25;8344903;28;20231;-68
2022/04/07 18:35:27;;;;;;;2.90;1.00;;;;;;;13.68;58.94;95571.13;8346792;28;20338;-68
2022/04/07 18:39:30;;;;;;;5.17;1.40;;;;;;;13.33;59.91;95582.22;8346479;28;20230;-68
2022/04/07 18:43:35;;;;;;;3.90;1.10;;;;;;;13.38;59.00;95595.63;8346042;28;20528;-70
2022/04/07 18:47:38;;;;;;;3.53;2.00;;;;;;;13.39;59.29;95618.06;8342042;28;20574;-69
2022/04/07 18:51:40;;;;;;;2.20;1.50;;;;;;;13.28;59.42;95619.84;8345098;28;20240;-70
2022/04/07 18:55:44;;;;;;;4.03;1.43;;;;;;;13.27;59.02;95620.81;8345886;28;20426;-67
2022/04/07 18:59:48;;;;;;;3.40;1.27;;;;;;;13.35;58.58;95633.13;8344878;28;20231;-67
2022/04/07 19:03:51;;;;;;;6.90;1.30;;;;;;;13.18;58.67;95623.44;8352261;28;20244;-67
2022/04/07 19:07:55;;;;;;;4.43;1.30;;;;;;;13.20;57.68;95621.53;8349593;28;20270;-68
2022/04/07 19:11:58;;;;;;;4.37;1.60;;;;;;;13.07;57.80;95629.63;8348066;28;20247;-67
2022/04/07 19:16:02;;;;;;;3.63;1.40;;;;;;;13.06;57.33;95652.19;8348029;28;20232;-67
2022/04/07 19:20:07;;;;;;;3.73;1.40;;;;;;;13.07;57.43;95655.59;8349383;28;20235;-68
2022/04/07 19:24:10;;;;;;;3.10;1.43;;;;;;;12.80;57.66;95674.50;8351309;28;20335;-67